Terminal Aerodrome Forecast
Issued by NWS Cheyenne, WY

Home | Current Version | Previous Version | Text Only | Print | Product List | Glossary On
Versions: 1 2 3 4 5 6 7 8 9 10 11 12 13 14 15 16 17 18 19 20 21 22 23 24 25 26 27 28 29 30
000
FTUS45 KCYS 291733
TAFCYS
TAF
KCYS 291733Z 2918/3018 03015G25KT P6SM OVC050
      TEMPO 2918/2920 BKN024
     FM300000 02012KT P6SM BKN080
     FM300300 33012KT P6SM SCT080
     FM301500 33020G30KT P6SM SKC=

USA.gov is the U.S. government's official web portal to all federal, state and local government web resources and services.